createdAt,value
2018-07-15T00:01:43.332Z,16.04
2018-07-15T00:04:14.604Z,16.07
2018-07-15T00:06:45.972Z,16.19
2018-07-15T00:09:17.211Z,16.43
2018-07-15T00:11:48.582Z,16.18
2018-07-15T00:14:22.295Z,16.08
2018-07-15T00:16:54.138Z,16.05
2018-07-15T00:19:25.490Z,16.02
2018-07-15T00:21:56.736Z,16.27
2018-07-15T00:24:28.021Z,16.22
2018-07-15T00:26:59.513Z,16.09
2018-07-15T00:29:30.840Z,16.19
2018-07-15T00:32:02.680Z,16.19
2018-07-15T00:34:34.023Z,16.15
2018-07-15T00:37:05.230Z,16.27
2018-07-15T00:39:36.541Z,16.22
2018-07-15T00:42:07.875Z,16.11
2018-07-15T00:44:39.007Z,15.99
2018-07-15T00:47:10.214Z,16.00
2018-07-15T00:49:41.453Z,15.95
2018-07-15T00:52:12.777Z,16.06
2018-07-15T00:54:43.972Z,15.92
2018-07-15T00:57:15.479Z,15.75
2018-07-15T00:59:46.890Z,15.89
2018-07-15T01:02:19.041Z,15.72
2018-07-15T01:04:50.986Z,15.48
2018-07-15T01:07:22.508Z,15.39
2018-07-15T01:09:53.666Z,15.32
2018-07-15T01:12:25.501Z,15.42
2018-07-15T01:14:56.751Z,15.86
2018-07-15T01:17:28.007Z,15.79
2018-07-15T01:19:59.371Z,15.64
2018-07-15T01:22:30.598Z,15.49
2018-07-15T01:25:03.533Z,15.19
2018-07-15T01:27:35.555Z,15.42
2018-07-15T01:30:06.764Z,15.49
2018-07-15T01:32:38.201Z,15.60
2018-07-15T01:35:09.373Z,15.57
2018-07-15T01:37:41.374Z,15.25
2018-07-15T01:40:12.615Z,15.19
2018-07-15T01:42:44.251Z,15.31
2018-07-15T01:45:16.466Z,15.61
2018-07-15T01:47:48.498Z,15.46
2018-07-15T01:50:20.466Z,15.24
2018-07-15T01:52:52.760Z,15.30
2018-07-15T01:55:23.779Z,14.93
2018-07-15T01:57:54.994Z,15.00
2018-07-15T02:00:26.645Z,15.22
2018-07-15T02:02:57.790Z,14.86
2018-07-15T02:05:29.031Z,14.83
2018-07-15T02:08:00.229Z,14.65
2018-07-15T02:10:32.033Z,14.83
2018-07-15T02:13:04.312Z,14.96
2018-07-15T02:15:35.601Z,14.73
2018-07-15T02:18:07.717Z,14.81
2018-07-15T02:20:39.651Z,14.96
2018-07-15T02:23:11.097Z,14.89
2018-07-15T02:25:42.547Z,14.90
2018-07-15T02:28:13.772Z,14.97
2018-07-15T02:30:45.165Z,14.55
2018-07-15T02:33:21.441Z,14.89
2018-07-15T02:35:52.582Z,14.69
2018-07-15T02:38:23.907Z,14.59
2018-07-15T02:40:55.152Z,14.70
2018-07-15T02:43:26.827Z,14.64
2018-07-15T02:45:57.996Z,14.68
2018-07-15T02:48:29.839Z,14.63
2018-07-15T02:53:58.888Z,14.47
2018-07-15T02:56:38.228Z,14.60
2018-07-15T02:59:09.704Z,14.33
2018-07-15T03:01:40.887Z,14.37
2018-07-15T03:04:12.059Z,14.42
2018-07-15T03:06:43.121Z,14.29
2018-07-15T03:09:14.298Z,14.18
2018-07-15T03:11:45.890Z,14.26
2018-07-15T03:14:17.014Z,14.12
2018-07-15T03:16:48.305Z,14.23
2018-07-15T03:19:19.761Z,14.41
2018-07-15T03:21:51.066Z,14.44
2018-07-15T03:24:22.475Z,14.29
2018-07-15T03:26:53.640Z,14.30
2018-07-15T03:29:25.223Z,14.23
2018-07-15T03:31:56.509Z,14.13
2018-07-15T03:34:27.684Z,14.17
2018-07-15T03:36:59.079Z,13.98
2018-07-15T03:39:30.283Z,14.27
2018-07-15T03:42:02.560Z,14.01
2018-07-15T03:44:33.932Z,14.11
2018-07-15T03:47:05.015Z,14.21
2018-07-15T03:49:36.481Z,14.19
2018-07-15T03:52:07.719Z,14.05
2018-07-15T03:54:39.541Z,14.08
2018-07-15T03:57:10.737Z,14.36
2018-07-15T03:59:41.890Z,14.17
2018-07-15T04:02:13.077Z,14.32
2018-07-15T04:04:44.208Z,14.47
2018-07-15T04:07:15.416Z,14.28
2018-07-15T04:09:46.755Z,14.43
2018-07-15T04:12:17.903Z,14.50
2018-07-15T04:14:49.486Z,14.45
2018-07-15T04:17:20.743Z,14.53
2018-07-15T04:19:52.271Z,14.47
2018-07-15T04:22:23.323Z,14.50
2018-07-15T04:24:54.847Z,14.51
2018-07-15T04:27:26.056Z,14.70
2018-07-15T04:29:57.184Z,14.72
2018-07-15T04:32:28.427Z,14.67
2018-07-15T04:34:59.616Z,14.68
2018-07-15T04:37:31.136Z,14.79
2018-07-15T04:40:02.635Z,14.82
2018-07-15T04:42:33.736Z,14.99
2018-07-15T04:45:07.704Z,15.13
2018-07-15T04:47:38.835Z,15.11
2018-07-15T04:50:10.079Z,15.11
2018-07-15T04:52:41.644Z,15.32
2018-07-15T04:55:16.397Z,15.37
2018-07-15T04:57:48.062Z,15.36
2018-07-15T05:00:21.879Z,15.58
2018-07-15T05:02:53.022Z,15.79
2018-07-15T05:05:26.293Z,15.79
2018-07-15T05:07:57.389Z,15.65
2018-07-15T05:10:28.676Z,15.75
2018-07-15T05:13:00.860Z,15.77
2018-07-15T05:15:34.106Z,15.98
2018-07-15T05:18:06.224Z,16.10
2018-07-15T05:20:38.255Z,16.30
2018-07-15T05:23:10.597Z,16.38
2018-07-15T05:25:42.151Z,16.52
2018-07-15T05:28:13.402Z,16.59
2018-07-15T05:30:44.625Z,16.56
2018-07-15T05:33:15.850Z,16.68
2018-07-15T05:35:47.065Z,17.03
2018-07-15T05:38:18.254Z,17.18
2018-07-15T05:40:49.774Z,17.28
2018-07-15T05:43:20.938Z,17.43
2018-07-15T05:45:52.731Z,17.75
2018-07-15T05:48:23.926Z,18.00
2018-07-15T05:50:55.115Z,17.99
2018-07-15T05:53:26.638Z,18.08
2018-07-15T05:55:57.783Z,18.08
2018-07-15T05:58:29.033Z,18.18
2018-07-15T06:01:00.692Z,18.32
2018-07-15T06:03:31.914Z,18.48
2018-07-15T06:06:03.152Z,18.70
2018-07-15T06:08:34.415Z,18.94
2018-07-15T06:11:05.528Z,18.79
2018-07-15T06:13:36.788Z,18.95
2018-07-15T06:16:07.883Z,18.99
2018-07-15T06:18:39.031Z,19.20
2018-07-15T06:21:10.338Z,19.09
2018-07-15T06:23:41.605Z,19.23
2018-07-15T06:26:12.863Z,19.28
2018-07-15T06:28:43.955Z,19.38
2018-07-15T06:31:15.317Z,19.62
2018-07-15T06:33:46.731Z,19.66
2018-07-15T06:36:18.019Z,19.78
2018-07-15T06:38:49.107Z,19.95
2018-07-15T06:41:20.436Z,19.83
2018-07-15T06:43:51.711Z,20.05
2018-07-15T06:46:22.942Z,20.12
2018-07-15T06:48:54.211Z,20.18
2018-07-15T06:51:25.578Z,20.06
2018-07-15T06:53:56.942Z,20.17
2018-07-15T06:56:28.159Z,20.46
2018-07-15T06:58:59.265Z,20.27
2018-07-15T07:01:30.824Z,20.32
2018-07-15T07:04:02.069Z,20.64
2018-07-15T07:06:33.490Z,20.76
2018-07-15T07:09:05.784Z,20.50
2018-07-15T07:11:38.438Z,20.66
2018-07-15T07:14:10.077Z,20.74
2018-07-15T07:16:41.569Z,20.80
2018-07-15T07:19:12.814Z,20.87
2018-07-15T07:21:44.069Z,21.20
2018-07-15T07:24:17.437Z,20.88
2018-07-15T07:26:48.863Z,21.29
2018-07-15T07:29:19.990Z,21.15
2018-07-15T07:31:51.249Z,21.60
2018-07-15T07:34:23.009Z,21.93
2018-07-15T07:36:54.903Z,22.04
2018-07-15T07:39:26.053Z,22.06
2018-07-15T07:41:57.385Z,21.85
2018-07-15T07:44:28.587Z,21.84
2018-07-15T07:46:59.867Z,22.11
2018-07-15T07:49:31.008Z,21.83
2018-07-15T07:52:03.567Z,21.56
2018-07-15T07:54:34.667Z,21.90
2018-07-15T07:57:07.711Z,22.05
2018-07-15T07:59:40.071Z,22.41
2018-07-15T08:02:15.507Z,22.48
2018-07-15T08:04:46.758Z,22.77
2018-07-15T08:07:18.043Z,22.71
2018-07-15T08:10:03.577Z,22.55
2018-07-15T08:12:36.179Z,22.75
2018-07-15T08:15:07.575Z,22.94
2018-07-15T08:17:38.843Z,23.17
2018-07-15T08:20:09.935Z,23.35
2018-07-15T08:22:41.197Z,23.40
2018-07-15T08:25:12.876Z,23.37
2018-07-15T08:27:45.524Z,22.95
2018-07-15T08:30:28.992Z,23.12
2018-07-15T08:33:00.356Z,23.50
2018-07-15T08:35:32.646Z,23.58
2018-07-15T08:38:05.660Z,23.91
2018-07-15T08:40:36.857Z,23.98
2018-07-15T08:43:09.662Z,24.05
2018-07-15T08:45:42.199Z,23.60
2018-07-15T08:48:13.397Z,23.87
2018-07-15T08:50:44.946Z,23.84
2018-07-15T08:53:16.008Z,23.75
2018-07-15T08:55:47.212Z,24.01
2018-07-15T08:58:19.697Z,24.07
2018-07-15T09:00:52.985Z,24.19
2018-07-15T09:03:24.212Z,24.39
2018-07-15T09:05:55.928Z,24.51
2018-07-15T09:08:27.108Z,24.69
2018-07-15T09:10:58.254Z,24.77
2018-07-15T09:13:29.516Z,24.88
2018-07-15T09:16:00.559Z,24.85
2018-07-15T09:18:32.118Z,24.69
2018-07-15T09:21:03.416Z,24.94
2018-07-15T09:23:34.640Z,25.03
2018-07-15T09:26:05.690Z,25.10
2018-07-15T09:28:36.794Z,25.15
2018-07-15T09:31:08.039Z,25.04
2018-07-15T09:33:39.323Z,25.31
2018-07-15T09:36:10.591Z,25.48
2018-07-15T09:38:42.206Z,25.34
2018-07-15T09:41:13.522Z,25.21
2018-07-15T09:43:44.732Z,25.49
2018-07-15T09:46:17.895Z,25.70
2018-07-15T09:48:49.059Z,25.43
2018-07-15T09:51:20.441Z,25.06
2018-07-15T09:53:51.614Z,24.91
2018-07-15T09:56:23.016Z,24.61
2018-07-15T09:58:54.473Z,25.19
2018-07-15T10:01:26.063Z,25.61
2018-07-15T10:03:57.504Z,25.70
2018-07-15T10:06:28.683Z,25.77
2018-07-15T10:09:00.010Z,25.54
2018-07-15T10:11:31.538Z,25.99
2018-07-15T10:14:02.882Z,26.36
2018-07-15T10:16:36.006Z,25.91
2018-07-15T10:19:07.664Z,25.75
2018-07-15T10:21:38.775Z,25.98
2018-07-15T10:24:09.906Z,26.03
2018-07-15T10:26:41.236Z,26.04
2018-07-15T10:29:12.303Z,25.88
2018-07-15T10:31:43.419Z,26.12
2018-07-15T10:34:14.932Z,26.50
2018-07-15T10:36:46.284Z,26.31
2018-07-15T10:39:17.387Z,26.45
2018-07-15T10:41:48.551Z,26.45
2018-07-15T10:44:19.833Z,26.09
2018-07-15T10:46:50.991Z,26.42
2018-07-15T10:49:22.948Z,26.47
2018-07-15T10:51:54.268Z,26.32
2018-07-15T10:54:25.589Z,26.33
2018-07-15T10:56:57.083Z,26.33
2018-07-15T10:59:28.564Z,26.52
2018-07-15T11:01:59.943Z,26.50
2018-07-15T11:04:32.047Z,26.35
2018-07-15T11:07:03.459Z,25.69
2018-07-15T11:09:34.599Z,25.24
2018-07-15T11:12:06.674Z,25.76
2018-07-15T11:14:38.349Z,26.14
2018-07-15T11:17:09.460Z,26.11
2018-07-15T11:19:40.671Z,26.11
2018-07-15T11:22:12.880Z,26.14
2018-07-15T11:24:44.936Z,26.06
2018-07-15T11:27:16.201Z,25.85
2018-07-15T11:29:47.373Z,25.81
2018-07-15T11:32:19.123Z,25.29
2018-07-15T11:34:50.297Z,25.38
2018-07-15T11:37:21.890Z,25.27
2018-07-15T11:39:53.189Z,25.33
2018-07-15T11:42:24.450Z,25.12
2018-07-15T11:44:55.458Z,24.90
2018-07-15T11:47:26.726Z,24.41
2018-07-15T11:49:57.973Z,24.07
2018-07-15T11:52:29.243Z,24.04
2018-07-15T11:55:00.459Z,24.13
2018-07-15T11:57:31.854Z,23.95
2018-07-15T12:00:05.720Z,23.94
2018-07-15T12:02:38.419Z,23.86
2018-07-15T12:05:12.489Z,23.91
2018-07-15T12:07:44.191Z,23.88
2018-07-15T12:10:15.262Z,23.92
2018-07-15T12:12:46.362Z,24.15
2018-07-15T12:15:20.846Z,24.17
2018-07-15T12:17:52.117Z,24.22
2018-07-15T12:20:23.539Z,24.57
2018-07-15T12:22:54.742Z,25.05
2018-07-15T12:25:27.007Z,25.29
2018-07-15T12:27:58.246Z,25.48
2018-07-15T12:30:30.661Z,25.82
2018-07-15T12:33:02.610Z,25.96
2018-07-15T12:35:34.258Z,25.76
2018-07-15T12:38:05.658Z,25.48
2018-07-15T12:40:37.469Z,26.04
2018-07-15T12:43:10.751Z,26.20
2018-07-15T12:45:41.808Z,25.88
2018-07-15T12:48:13.939Z,25.55
2018-07-15T12:50:44.987Z,25.64
2018-07-15T12:53:16.209Z,25.72
2018-07-15T12:55:47.382Z,26.24
2018-07-15T12:58:18.516Z,26.62
2018-07-15T13:00:49.844Z,26.72
2018-07-15T13:03:20.873Z,26.78
2018-07-15T13:05:51.955Z,26.80
2018-07-15T13:08:23.051Z,26.82
2018-07-15T13:10:54.182Z,26.88
2018-07-15T13:13:25.341Z,26.88
2018-07-15T13:15:56.687Z,27.07
2018-07-15T13:18:27.828Z,26.72
2018-07-15T13:20:59.044Z,26.58
2018-07-15T13:23:30.459Z,26.76
2018-07-15T13:26:01.896Z,27.00
2018-07-15T13:28:32.988Z,27.31
2018-07-15T13:31:04.116Z,26.60
2018-07-15T13:33:35.462Z,26.47
2018-07-15T13:36:06.585Z,26.62
2018-07-15T13:38:37.947Z,26.78
2018-07-15T13:41:09.269Z,26.98
2018-07-15T13:43:40.506Z,26.45
2018-07-15T13:46:11.669Z,26.28
2018-07-15T13:48:42.826Z,25.95
2018-07-15T13:51:13.944Z,25.78
2018-07-15T13:53:45.131Z,25.96
2018-07-15T13:56:16.947Z,25.83
2018-07-15T13:58:50.324Z,25.87
2018-07-15T14:01:23.878Z,25.71
2018-07-15T14:03:55.119Z,25.64
2018-07-15T14:06:26.141Z,25.52
2018-07-15T14:08:57.717Z,25.42
2018-07-15T14:11:28.807Z,25.23
2018-07-15T14:14:00.051Z,25.19
2018-07-15T14:16:31.386Z,25.34
2018-07-15T14:19:02.866Z,25.35
2018-07-15T14:21:34.110Z,25.34
2018-07-15T14:24:05.498Z,25.12
2018-07-15T14:26:36.545Z,25.35
2018-07-15T14:29:08.069Z,25.21
2018-07-15T14:31:39.036Z,24.98
2018-07-15T14:34:10.107Z,25.00
2018-07-15T14:36:41.073Z,25.05
2018-07-15T14:39:12.423Z,25.22
2018-07-15T14:41:44.999Z,24.85
2018-07-15T14:44:16.060Z,24.80
2018-07-15T14:46:47.123Z,24.74
2018-07-15T14:49:18.495Z,24.98
2018-07-15T14:51:49.491Z,24.87
2018-07-15T14:54:20.605Z,23.05
2018-07-15T14:56:51.954Z,23.00
2018-07-15T14:59:23.318Z,22.98
2018-07-15T15:01:55.272Z,23.06
2018-07-15T15:04:26.499Z,23.03
2018-07-15T15:06:57.903Z,22.64
2018-07-15T15:09:29.532Z,22.50
2018-07-15T15:12:01.303Z,22.50
2018-07-15T15:14:32.898Z,22.57
2018-07-15T15:17:03.852Z,22.39
2018-07-15T15:19:35.197Z,22.38
2018-07-15T15:22:06.743Z,21.92
2018-07-15T15:24:38.041Z,22.14
2018-07-15T15:27:09.157Z,21.72
2018-07-15T15:29:40.243Z,21.52
2018-07-15T15:32:11.443Z,21.31
2018-07-15T15:34:42.452Z,21.64
2018-07-15T15:37:13.477Z,21.64
2018-07-15T15:39:45.923Z,21.11
2018-07-15T15:42:32.890Z,20.75
2018-07-15T15:45:06.249Z,20.96
2018-07-15T15:47:38.883Z,20.91
2018-07-15T15:50:10.473Z,20.90
2018-07-15T15:52:45.823Z,20.39
2018-07-15T15:55:17.419Z,20.40
2018-07-15T15:57:50.053Z,20.06
2018-07-15T16:00:23.901Z,19.96
2018-07-15T16:02:56.826Z,20.07
2018-07-15T16:05:28.438Z,20.01
2018-07-15T16:08:01.748Z,19.83
2018-07-15T16:10:34.454Z,19.93
2018-07-15T16:13:08.040Z,19.59
2018-07-15T16:15:40.239Z,19.63
2018-07-15T16:18:12.492Z,19.55
2018-07-15T16:20:43.727Z,19.74
2018-07-15T16:23:14.996Z,19.49
2018-07-15T16:25:46.406Z,19.11
2018-07-15T16:28:17.567Z,19.23
2018-07-15T16:30:49.083Z,19.64
2018-07-15T16:33:20.927Z,19.36
2018-07-15T16:35:52.426Z,19.57
2018-07-15T16:38:23.680Z,18.93
2018-07-15T16:40:55.552Z,18.09
2018-07-15T16:43:26.860Z,17.63
2018-07-15T16:45:58.238Z,17.61
2018-07-15T16:48:29.772Z,17.51
2018-07-15T16:51:01.128Z,17.88
2018-07-15T16:53:35.789Z,18.09
2018-07-15T16:56:07.299Z,18.57
2018-07-15T16:58:38.736Z,19.04
2018-07-15T17:01:10.339Z,19.47
2018-07-15T17:03:42.102Z,19.45
2018-07-15T17:06:13.305Z,19.53
2018-07-15T17:08:45.012Z,19.60
2018-07-15T17:11:16.423Z,19.54
2018-07-15T17:13:48.271Z,19.48
2018-07-15T17:16:19.317Z,19.61
2018-07-15T17:18:50.637Z,19.61
2018-07-15T17:21:21.946Z,19.75
2018-07-15T17:23:53.132Z,19.64
2018-07-15T17:26:24.615Z,19.84
2018-07-15T17:28:56.695Z,19.94
2018-07-15T17:31:28.143Z,19.88
2018-07-15T17:33:59.452Z,19.70
2018-07-15T17:36:30.769Z,19.74
2018-07-15T17:39:03.455Z,19.68
2018-07-15T17:41:35.044Z,19.69
2018-07-15T17:44:06.494Z,19.59
2018-07-15T17:46:37.970Z,19.44
2018-07-15T17:49:09.943Z,19.48
2018-07-15T17:51:41.069Z,18.78
2018-07-15T17:54:12.465Z,19.14
2018-07-15T17:56:44.023Z,19.17
2018-07-15T17:59:16.782Z,18.74
2018-07-15T18:01:49.916Z,18.40
2018-07-15T18:04:21.425Z,18.28
2018-07-15T18:06:52.888Z,18.09
2018-07-15T18:09:24.870Z,17.91
2018-07-15T18:11:56.209Z,17.77
2018-07-15T18:14:28.009Z,17.84
2018-07-15T18:16:59.312Z,17.93
2018-07-15T18:19:30.680Z,17.94
2018-07-15T18:22:02.935Z,17.79
2018-07-15T18:24:35.252Z,17.51
2018-07-15T18:27:07.406Z,17.98
2018-07-15T18:29:39.672Z,18.24
2018-07-15T18:32:12.244Z,18.70
2018-07-15T18:34:45.968Z,18.79
2018-07-15T18:37:18.478Z,18.63
2018-07-15T18:39:50.283Z,17.84
2018-07-15T18:42:22.209Z,18.28
2018-07-15T18:44:54.293Z,18.39
2018-07-15T18:47:26.143Z,18.40
2018-07-15T18:49:58.006Z,18.73
2018-07-15T18:52:29.604Z,18.76
2018-07-15T18:55:02.407Z,18.92
2018-07-15T18:57:34.396Z,19.13
2018-07-15T19:00:09.555Z,19.16
2018-07-15T19:02:43.265Z,19.07
2018-07-15T19:05:19.517Z,18.90
2018-07-15T19:07:53.037Z,18.94
2018-07-15T19:10:24.791Z,18.70
2018-07-15T19:12:58.926Z,18.98
2018-07-15T19:15:32.605Z,18.94
2018-07-15T19:18:06.277Z,18.88
2018-07-15T19:20:39.522Z,18.78
2018-07-15T19:23:12.577Z,18.97
2018-07-15T19:25:46.208Z,18.89
2018-07-15T19:28:18.442Z,18.97
2018-07-15T19:30:50.056Z,18.93
2018-07-15T19:33:26.079Z,18.54
2018-07-15T19:35:57.764Z,18.46
2018-07-15T19:38:29.631Z,18.69
2018-07-15T19:41:02.091Z,18.62
2018-07-15T19:43:33.932Z,18.76
2018-07-15T19:46:06.273Z,18.75
2018-07-15T19:48:38.245Z,18.53
2018-07-15T19:51:10.602Z,18.55
2018-07-15T19:53:42.256Z,18.46
2018-07-15T19:56:13.827Z,18.52
2018-07-15T19:58:45.900Z,18.55
2018-07-15T20:01:17.329Z,18.41
2018-07-15T20:03:55.740Z,18.26
2018-07-15T20:06:27.457Z,18.52
2018-07-15T20:08:59.129Z,18.59
2018-07-15T20:11:30.857Z,18.43
2018-07-15T20:14:01.946Z,18.47
2018-07-15T20:16:33.405Z,18.50
2018-07-15T20:19:05.168Z,18.51
2018-07-15T20:21:36.452Z,18.49
2018-07-15T20:24:07.843Z,18.32
2018-07-15T20:26:39.219Z,18.38
2018-07-15T20:29:10.483Z,18.16
2018-07-15T20:32:00.637Z,18.18
2018-07-15T20:34:32.805Z,18.17
2018-07-15T20:37:04.351Z,18.17
2018-07-15T20:39:35.508Z,18.20
2018-07-15T20:42:07.903Z,18.12
2018-07-15T20:44:39.214Z,18.10
2018-07-15T20:47:11.497Z,18.18
2018-07-15T20:49:42.883Z,18.21
2018-07-15T20:52:14.144Z,18.15
2018-07-15T20:54:45.669Z,18.21
2018-07-15T20:57:17.259Z,18.22
2018-07-15T20:59:48.718Z,18.04
2018-07-15T21:02:19.775Z,17.93
2018-07-15T21:04:51.019Z,18.05
2018-07-15T21:07:22.472Z,18.05
2018-07-15T21:09:54.144Z,18.12
2018-07-15T21:12:25.329Z,18.17
2018-07-15T21:14:56.370Z,18.06
2018-07-15T21:17:27.664Z,17.90
2018-07-15T21:19:59.225Z,17.92
2018-07-15T21:22:30.982Z,17.82
2018-07-15T21:25:15.958Z,17.84
2018-07-15T21:27:48.259Z,17.92
2018-07-15T21:30:21.999Z,17.89
2018-07-15T21:32:54.787Z,17.44
2018-07-15T21:35:29.089Z,17.66
2018-07-15T21:38:00.659Z,17.80
2018-07-15T21:40:33.319Z,17.62
2018-07-15T21:43:05.999Z,17.43
2018-07-15T21:45:38.439Z,17.44
2018-07-15T21:48:12.376Z,17.51
2018-07-15T21:50:44.502Z,17.55
2018-07-15T21:53:15.467Z,17.48
2018-07-15T21:55:47.025Z,17.47
2018-07-15T21:58:18.192Z,17.43
2018-07-15T22:00:49.973Z,17.38
2018-07-15T22:03:21.284Z,17.49
2018-07-15T22:05:52.548Z,17.53
2018-07-15T22:08:34.410Z,17.47
2018-07-15T22:11:06.374Z,17.13
2018-07-15T22:13:37.826Z,17.25
2018-07-15T22:16:09.381Z,17.16
2018-07-15T22:18:40.395Z,17.30
2018-07-15T22:21:11.723Z,17.17
2018-07-15T22:23:42.851Z,17.20
2018-07-15T22:26:15.103Z,17.25
2018-07-15T22:28:46.399Z,17.47
2018-07-15T22:31:17.787Z,17.50
2018-07-15T22:33:48.811Z,17.48
2018-07-15T22:36:20.793Z,17.22
2018-07-15T22:38:52.031Z,17.31
2018-07-15T22:41:23.207Z,17.28
2018-07-15T22:43:54.880Z,17.33
2018-07-15T22:46:26.327Z,17.34
2018-07-15T22:48:57.675Z,17.19
2018-07-15T22:51:28.812Z,17.31
2018-07-15T22:53:59.922Z,17.33
2018-07-15T22:56:31.392Z,17.32
2018-07-15T22:59:02.633Z,17.41
2018-07-15T23:01:33.828Z,17.47
2018-07-15T23:04:04.997Z,17.44
2018-07-15T23:06:38.864Z,17.47
2018-07-15T23:09:11.056Z,17.33
2018-07-15T23:11:42.714Z,17.31
2018-07-15T23:14:13.752Z,16.91
2018-07-15T23:16:45.138Z,16.46
2018-07-15T23:19:16.452Z,16.51
2018-07-15T23:21:47.652Z,16.81
2018-07-15T23:24:18.587Z,17.05
2018-07-15T23:26:49.668Z,17.11
2018-07-15T23:29:21.090Z,17.17
2018-07-15T23:31:52.568Z,17.11
2018-07-15T23:34:23.640Z,17.08
2018-07-15T23:36:55.199Z,17.02
2018-07-15T23:39:26.284Z,16.70
2018-07-15T23:45:01.263Z,16.97
2018-07-15T23:47:34.664Z,16.86
2018-07-15T23:50:06.958Z,16.97
2018-07-15T23:52:37.982Z,17.00
2018-07-15T23:55:09.402Z,16.78
2018-07-15T23:57:40.317Z,16.87
